Time;durP1;ratioP1;P1;durP2;ratioP2;P2;SDS_P1;SDS_P2;PMS_P1;PMS_P2;Temp;Humidity;BMP_temperature;BMP_pressure;BME280_temperature;BME280_humidity;BME280_pressure;Samples;Min_cycle;Max_cycle;Signal;HPM_P1;HPM_P2
2022/09/16 00:01:47;;;;;;;7.10;2.80;;;;;18.78;96390.60;;;;111097;1247;41139;-63
2022/09/16 00:04:17;;;;;;;8.60;3.00;;;;;18.78;96388.40;;;;111063;1247;41454;-64
2022/09/16 00:06:47;;;;;;;8.70;2.90;;;;;18.80;96392.60;;;;111052;1248;41518;-63
2022/09/16 00:09:17;;;;;;;11.80;2.50;;;;;18.80;96400.20;;;;111057;1247;41141;-63
2022/09/16 00:11:46;;;;;;;8.50;2.70;;;;;18.80;96401.00;;;;111108;1247;41358;-63
2022/09/16 00:14:16;;;;;;;7.30;2.30;;;;;18.74;96404.60;;;;111071;1247;41256;-63
2022/09/16 00:16:46;;;;;;;7.60;2.60;;;;;18.78;96408.60;;;;111065;1247;41155;-63
2022/09/16 00:19:16;;;;;;;;;;;;;18.76;96407.40;;;;111123;1248;41588;-63
2022/09/16 00:21:47;;;;;;;12.50;3.00;;;;;18.70;96416.20;;;;111104;1248;41195;-63
2022/09/16 00:24:17;;;;;;;8.50;2.30;;;;;18.74;96414.80;;;;111053;1248;41716;-63
2022/09/16 00:26:47;;;;;;;10.40;2.40;;;;;18.74;96412.40;;;;111066;1249;42475;-63
2022/09/16 00:29:17;;;;;;;9.00;2.50;;;;;18.80;96415.20;;;;111097;1248;41704;-63
2022/09/16 00:31:47;;;;;;;4.90;2.10;;;;;18.90;96408.60;;;;111038;1247;42542;-63
2022/09/16 00:34:17;;;;;;;6.90;2.60;;;;;18.90;96402.00;;;;111011;1247;41166;-63
2022/09/16 00:36:47;;;;;;;8.60;1.90;;;;;18.92;96395.20;;;;111092;1247;41161;-63
2022/09/16 00:39:18;;;;;;;8.80;2.00;;;;;19.00;96390.60;;;;111109;1247;41353;-63
2022/09/16 00:41:50;;;;;;;8.00;2.00;;;;;19.00;96387.60;;;;111078;1247;41218;-63
2022/09/16 00:44:58;;;;;;;5.60;1.90;;;;;19.00;96383.60;;;;111087;1248;41136;-63
2022/09/16 00:47:39;;;;;;;7.60;2.30;;;;;19.00;96389.60;;;;111074;1247;41607;-63
2022/09/16 00:50:23;;;;;;;;;;;;;19.00;96395.40;;;;111099;1248;41410;-63
2022/09/16 00:52:53;;;;;;;5.60;1.90;;;;;19.00;96393.20;;;;111076;1247;41154;-62
2022/09/16 00:55:27;;;;;;;7.30;2.00;;;;;19.02;96395.80;;;;111057;1247;41269;-62
2022/09/16 00:58:04;;;;;;;9.00;2.40;;;;;19.10;96396.60;;;;111090;1247;41181;-63
2022/09/16 01:00:37;;;;;;;6.30;2.20;;;;;19.10;96393.80;;;;111043;1248;41258;-62
2022/09/16 01:03:06;;;;;;;6.30;2.10;;;;;19.10;96397.00;;;;111059;1247;42238;-63
2022/09/16 01:05:36;;;;;;;6.50;2.00;;;;;19.10;96398.00;;;;111060;1247;41275;-63
2022/09/16 01:08:07;;;;;;;7.20;2.20;;;;;19.00;96397.80;;;;110719;1250;41246;-62
2022/09/16 01:10:36;;;;;;;5.20;1.90;;;;;19.08;96398.80;;;;111101;1247;41231;-63
2022/09/16 01:13:12;;;;;;;7.60;2.20;;;;;19.00;96396.60;;;;111143;1248;42292;-62
2022/09/16 01:15:49;;;;;;;5.60;1.70;;;;;19.10;96398.40;;;;110687;1248;41155;-63
2022/09/16 01:18:52;;;;;;;6.50;2.00;;;;;19.00;96400.80;;;;110723;1248;41673;-63
2022/09/16 01:21:26;;;;;;;10.90;1.80;;;;;19.00;96398.00;;;;111026;1247;41135;-63
2022/09/16 01:24:06;;;;;;;6.20;2.30;;;;;19.00;96402.60;;;;111071;1248;41253;-63
2022/09/16 01:26:59;;;;;;;9.10;2.40;;;;;19.00;96407.00;;;;111095;1247;41595;-64
2022/09/16 01:29:49;;;;;;;7.90;1.90;;;;;19.00;96410.80;;;;111111;1247;41183;-63
2022/09/16 01:32:51;;;;;;;8.10;2.20;;;;;18.90;96410.60;;;;111080;1248;41264;-64
2022/09/16 01:35:29;;;;;;;8.30;1.90;;;;;18.90;96407.80;;;;111088;1248;41264;-63
2022/09/16 01:38:13;;;;;;;5.50;1.80;;;;;18.90;96413.80;;;;111140;1248;41233;-63
2022/09/16 01:41:02;;;;;;;4.20;1.90;;;;;18.90;96418.00;;;;111299;1247;42057;-63
2022/09/16 01:43:58;;;;;;;4.50;1.70;;;;;18.90;96415.60;;;;111094;1247;41291;-63
2022/09/16 01:46:43;;;;;;;8.20;2.00;;;;;18.82;96419.20;;;;111160;1247;41127;-63
2022/09/16 01:49:25;;;;;;;4.10;1.60;;;;;18.86;96419.60;;;;111009;1247;41134;-63
2022/09/16 01:52:08;;;;;;;5.10;1.70;;;;;18.80;96426.00;;;;110755;1250;41171;-63
2022/09/16 01:54:50;;;;;;;5.30;1.70;;;;;18.80;96428.00;;;;111059;1247;41190;-63
2022/09/16 01:57:27;;;;;;;5.30;1.90;;;;;18.80;96434.80;;;;111080;1247;41716;-63
2022/09/16 02:00:13;;;;;;;6.90;2.00;;;;;18.70;96439.80;;;;111068;1247;42182;-63
2022/09/16 02:02:51;;;;;;;4.20;1.80;;;;;18.70;96442.00;;;;111056;1247;41143;-63
2022/09/16 02:05:47;;;;;;;7.80;2.10;;;;;18.66;96441.80;;;;111097;1247;41143;-63
2022/09/16 02:08:29;;;;;;;5.70;1.80;;;;;18.60;96445.40;;;;111049;1248;41712;-64
2022/09/16 02:11:03;;;;;;;4.80;1.60;;;;;18.58;96446.20;;;;111080;1247;41682;-63
2022/09/16 02:13:43;;;;;;;7.60;2.10;;;;;18.50;96446.40;;;;110982;1249;42053;-63
2022/09/16 02:16:19;;;;;;;4.90;1.80;;;;;18.50;96443.80;;;;111091;1247;41279;-63
2022/09/16 02:18:53;;;;;;;4.90;1.80;;;;;18.42;96445.80;;;;110919;1250;41202;-63
2022/09/16 02:21:24;;;;;;;6.60;2.20;;;;;18.40;96447.40;;;;111041;1248;41246;-65
2022/09/16 02:23:57;;;;;;;4.20;1.60;;;;;18.30;96450.20;;;;111044;1247;41165;-64
2022/09/16 02:26:30;;;;;;;6.40;2.20;;;;;18.30;96450.60;;;;110724;1251;41411;-63
2022/09/16 02:29:00;;;;;;;5.10;1.80;;;;;18.22;96453.00;;;;111039;1249;41695;-63
2022/09/16 02:31:33;;;;;;;4.70;1.50;;;;;18.20;96455.40;;;;110987;1249;41959;-63
2022/09/16 02:34:09;;;;;;;6.90;2.10;;;;;18.20;96456.00;;;;111009;1248;41143;-63
2022/09/16 02:36:39;;;;;;;4.30;1.90;;;;;18.14;96458.00;;;;111027;1248;41658;-63
2022/09/16 02:39:11;;;;;;;6.00;2.00;;;;;18.10;96458.60;;;;111061;1247;41150;-63
2022/09/16 02:41:40;;;;;;;5.80;1.90;;;;;18.04;96460.80;;;;110901;1248;41491;-64
2022/09/16 02:44:10;;;;;;;5.80;1.90;;;;;18.00;96466.60;;;;111056;1248;41196;-64
2022/09/16 02:47:00;;;;;;;5.50;2.10;;;;;18.00;96464.00;;;;110984;1248;41254;-63
2022/09/16 02:49:35;;;;;;;6.10;1.90;;;;;17.92;96471.60;;;;111022;1248;42148;-63
2022/09/16 02:52:16;;;;;;;5.50;2.20;;;;;17.90;96483.80;;;;111055;1247;41759;-62
2022/09/16 02:55:06;;;;;;;4.50;1.80;;;;;17.90;96499.00;;;;111024;1248;41162;-63
2022/09/16 02:57:37;;;;;;;5.80;2.10;;;;;17.80;96500.00;;;;111101;1249;40891;-63
2022/09/16 03:00:08;;;;;;;5.60;1.70;;;;;17.80;96500.40;;;;111017;1249;41158;-64
2022/09/16 03:02:37;;;;;;;5.70;1.70;;;;;17.80;96505.20;;;;110685;1250;41236;-64
2022/09/16 03:05:08;;;;;;;8.60;2.00;;;;;17.80;96503.00;;;;111043;1249;41239;-65
2022/09/16 03:07:38;;;;;;;4.50;1.70;;;;;17.80;96514.40;;;;111107;1247;41265;-63
2022/09/16 03:10:09;;;;;;;;;;;;;17.70;96513.80;;;;111153;1247;42279;-63
2022/09/16 03:12:45;;;;;;;6.10;1.90;;;;;17.70;96508.80;;;;111072;1248;41143;-63
2022/09/16 03:15:29;;;;;;;5.00;1.90;;;;;17.70;96506.80;;;;111038;1247;41693;-63
2022/09/16 03:18:04;;;;;;;6.10;2.00;;;;;17.70;96504.40;;;;111016;1247;41376;-63
2022/09/16 03:20:51;;;;;;;10.30;1.80;;;;;17.62;96507.00;;;;111087;1248;41132;-63
2022/09/16 03:23:36;;;;;;;7.40;2.10;;;;;17.60;96512.60;;;;111084;1247;41184;-63
2022/09/16 03:26:24;;;;;;;4.40;1.80;;;;;17.60;96516.40;;;;111050;1247;41282;-63
2022/09/16 03:29:17;;;;;;;9.00;1.90;;;;;17.60;96521.20;;;;111135;1247;41258;-64
2022/09/16 03:32:05;;;;;;;4.90;1.70;;;;;17.60;96524.00;;;;110986;1248;41419;-62
2022/09/16 03:34:41;;;;;;;7.20;2.30;;;;;17.60;96530.60;;;;111086;1247;41149;-63
2022/09/16 03:37:14;;;;;;;7.10;1.70;;;;;17.58;96536.20;;;;111066;1248;41176;-63
2022/09/16 03:39:52;;;;;;;3.40;1.60;;;;;17.60;96532.00;;;;111079;1247;41170;-63
2022/09/16 03:42:21;;;;;;;4.00;1.60;;;;;17.60;96526.20;;;;111072;1247;42179;-64
2022/09/16 03:44:50;;;;;;;5.20;2.00;;;;;17.52;96532.80;;;;111056;1248;41140;-64
2022/09/16 03:47:20;;;;;;;5.20;1.70;;;;;17.58;96532.00;;;;111038;1248;41251;-63
2022/09/16 03:49:49;;;;;;;6.10;1.90;;;;;17.58;96532.80;;;;111064;1247;41151;-63
2022/09/16 03:52:20;;;;;;;5.10;1.70;;;;;17.60;96533.20;;;;111113;1247;41614;-63
2022/09/16 03:54:48;;;;;;;5.00;1.80;;;;;17.60;96540.60;;;;111220;1247;41194;-65
2022/09/16 03:57:18;;;;;;;3.50;1.70;;;;;17.60;96546.40;;;;111100;1247;42236;-63
2022/09/16 03:59:48;;;;;;;9.50;1.90;;;;;17.60;96554.80;;;;111189;1249;41130;-64
2022/09/16 04:02:19;;;;;;;;;;;;;17.60;96563.80;;;;111146;1247;42557;-63
2022/09/16 04:04:49;;;;;;;;;;;;;17.60;96558.20;;;;111011;1249;42121;-62
2022/09/16 04:07:20;;;;;;;7.10;1.90;;;;;17.60;96558.00;;;;111124;1247;41251;-64
2022/09/16 04:09:50;;;;;;;;;;;;;17.58;96568.40;;;;111073;1247;41153;-64
2022/09/16 04:12:20;;;;;;;6.20;2.00;;;;;17.58;96558.40;;;;111118;1247;41256;-63
2022/09/16 04:14:50;;;;;;;6.10;2.00;;;;;17.60;96556.20;;;;111138;1248;41155;-65
2022/09/16 04:17:20;;;;;;;4.80;2.10;;;;;17.60;96560.00;;;;111161;1248;41631;-63
2022/09/16 04:19:51;;;;;;;3.50;1.80;;;;;17.50;96562.20;;;;111113;1247;41267;-64
2022/09/16 04:22:22;;;;;;;4.70;1.80;;;;;17.52;96568.60;;;;111074;1247;42105;-63
2022/09/16 04:24:52;;;;;;;4.10;1.90;;;;;17.50;96575.40;;;;111048;1250;41269;-63
2022/09/16 04:27:22;;;;;;;4.70;2.20;;;;;17.50;96573.00;;;;111055;1248;41250;-63
2022/09/16 04:29:52;;;;;;;3.60;1.70;;;;;17.50;96570.20;;;;111094;1247;41653;-63
2022/09/16 04:32:22;;;;;;;8.00;2.10;;;;;17.50;96587.20;;;;110926;1248;41256;-64
2022/09/16 04:34:51;;;;;;;7.80;2.40;;;;;17.50;96575.00;;;;111035;1248;41123;-62
2022/09/16 04:37:21;;;;;;;5.60;2.30;;;;;17.50;96569.60;;;;111046;1247;41150;-64
2022/09/16 04:39:52;;;;;;;5.10;2.00;;;;;17.50;96570.20;;;;111092;1248;41149;-62
2022/09/16 04:42:22;;;;;;;6.10;2.20;;;;;17.50;96567.40;;;;111104;1247;41126;-63
2022/09/16 04:44:52;;;;;;;6.60;2.20;;;;;17.50;96569.40;;;;111172;1248;41586;-64
2022/09/16 04:47:21;;;;;;;6.30;2.50;;;;;17.50;96566.20;;;;111089;1247;42482;-63
2022/09/16 04:49:50;;;;;;;6.30;2.60;;;;;17.50;96565.80;;;;111111;1247;42097;-63
2022/09/16 04:52:34;;;;;;;6.10;2.20;;;;;17.50;96564.40;;;;111111;1249;42598;-62
2022/09/16 04:55:09;;;;;;;5.60;2.30;;;;;17.50;96569.60;;;;111094;1248;41206;-63
2022/09/16 04:57:40;;;;;;;7.00;2.40;;;;;17.60;96569.80;;;;111060;1247;41263;-62
2022/09/16 05:00:11;;;;;;;8.00;2.30;;;;;17.60;96567.40;;;;111117;1247;41154;-64
2022/09/16 05:02:44;;;;;;;8.10;2.70;;;;;17.60;96574.00;;;;111048;1247;41181;-65
2022/09/16 05:05:16;;;;;;;4.90;2.10;;;;;17.70;96578.00;;;;111140;1247;42211;-65
2022/09/16 05:07:44;;;;;;;;;;;;;17.70;96581.20;;;;111079;1248;42432;-64
2022/09/16 05:10:14;;;;;;;5.10;2.30;;;;;17.74;96581.80;;;;111091;1248;41141;-64
2022/09/16 05:12:43;;;;;;;6.00;2.20;;;;;17.88;96541.00;;;;111049;1249;41134;-65
2022/09/16 05:15:18;;;;;;;4.30;2.00;;;;;18.34;96565.40;;;;111074;1247;41607;-65
2022/09/16 05:17:49;;;;;;;5.70;2.00;;;;;19.02;96553.20;;;;110831;1249;41269;-65
2022/09/16 05:20:20;;;;;;;6.00;1.70;;;;;19.62;96577.60;;;;111095;1247;41380;-64
2022/09/16 05:22:50;;;;;;;9.10;2.10;;;;;20.24;96542.00;;;;111160;1247;41151;-65
2022/09/16 05:25:20;;;;;;;4.50;1.90;;;;;21.16;96540.60;;;;110788;1249;41152;-64
2022/09/16 05:27:49;;;;;;;5.40;2.00;;;;;22.30;96543.20;;;;111035;1247;41136;-65
2022/09/16 05:30:18;;;;;;;4.90;1.70;;;;;22.60;96537.40;;;;109830;1249;1716865;-65
2022/09/16 05:32:53;;;;;;;2.60;1.60;;;;;22.84;96537.20;;;;111020;1247;41241;-65
2022/09/16 05:35:22;;;;;;;4.70;1.70;;;;;23.10;96533.00;;;;111132;1248;41127;-65
2022/09/16 05:37:51;;;;;;;3.50;1.70;;;;;23.38;96530.60;;;;111016;1248;41634;-64
2022/09/16 05:40:21;;;;;;;6.00;2.00;;;;;23.40;96530.60;;;;111092;1248;42540;-64
2022/09/16 05:42:50;;;;;;;;;;;;;23.70;96539.60;;;;111064;1248;41227;-64
2022/09/16 05:45:20;;;;;;;3.70;1.70;;;;;24.08;96558.80;;;;111084;1249;41594;-64
2022/09/16 05:47:53;;;;;;;3.00;1.50;;;;;23.74;96537.80;;;;111058;1248;41675;-64
2022/09/16 05:50:22;;;;;;;5.80;1.40;;;;;24.34;96534.20;;;;111049;1247;41166;-64
2022/09/16 05:52:51;;;;;;;5.40;1.80;;;;;24.96;96530.60;;;;111363;1248;41269;-65
2022/09/16 05:55:21;;;;;;;2.50;1.20;;;;;24.96;96527.00;;;;111145;1247;41124;-66
2022/09/16 05:57:52;;;;;;;4.30;1.40;;;;;25.50;96524.40;;;;111213;1247;41151;-65
2022/09/16 06:00:23;;;;;;;2.30;1.20;;;;;25.26;96531.20;;;;111230;1247;41151;-67
2022/09/16 06:02:54;;;;;;;2.60;1.30;;;;;25.40;96532.00;;;;111195;1250;41168;-66
2022/09/16 06:05:24;;;;;;;4.10;1.30;;;;;25.64;96535.00;;;;111190;1248;41760;-67
2022/09/16 06:07:58;;;;;;;2.70;1.40;;;;;24.90;96546.40;;;;110805;1250;41162;-66
2022/09/16 06:10:29;;;;;;;2.80;1.30;;;;;25.58;96543.20;;;;110914;1250;41760;-65
2022/09/16 06:12:58;;;;;;;;;;;;;25.66;96545.40;;;;111229;1248;41218;-65
2022/09/16 06:15:31;;;;;;;;;;;;;26.28;96552.60;;;;111231;1247;41800;-65
2022/09/16 06:18:03;;;;;;;3.30;1.30;;;;;26.50;96550.20;;;;111147;1248;42370;-65
2022/09/16 06:20:36;;;;;;;1.90;1.20;;;;;26.00;96558.40;;;;111126;1250;41983;-69
2022/09/16 06:23:06;;;;;;;3.60;1.60;;;;;26.60;96563.60;;;;111159;1249;41150;-66
2022/09/16 06:25:37;;;;;;;3.40;1.40;;;;;26.30;96565.80;;;;111177;1246;41133;-66
2022/09/16 06:28:10;;;;;;;3.10;1.50;;;;;26.40;96566.00;;;;111184;1247;41179;-66
2022/09/16 06:30:42;;;;;;;4.10;1.30;;;;;26.24;96567.40;;;;111166;1248;41151;-66
2022/09/16 06:33:14;;;;;;;;;;;;;26.68;96568.00;;;;111177;1247;41139;-66
2022/09/16 06:35:45;;;;;;;5.00;1.40;;;;;26.92;96564.60;;;;110853;1250;41725;-66
2022/09/16 06:38:15;;;;;;;4.00;1.70;;;;;26.44;96571.20;;;;110878;1251;42137;-64
2022/09/16 06:40:48;;;;;;;3.60;1.50;;;;;26.00;96572.60;;;;111128;1248;41204;-66
2022/09/16 06:43:20;;;;;;;2.70;1.30;;;;;26.30;96575.00;;;;111190;1249;41607;-67
2022/09/16 06:46:12;;;;;;;5.30;1.60;;;;;26.80;96581.00;;;;111166;1247;41176;-66
2022/09/16 06:48:45;;;;;;;3.00;1.30;;;;;26.86;96578.60;;;;111141;1248;41143;-66
2022/09/16 06:51:21;;;;;;;2.90;1.40;;;;;27.16;96581.60;;;;111080;1248;41131;-66
2022/09/16 06:53:52;;;;;;;4.90;1.50;;;;;27.72;96597.80;;;;110924;1250;41148;-67
2022/09/16 06:56:23;;;;;;;2.10;1.30;;;;;28.36;96612.80;;;;110919;1249;41374;-66
2022/09/16 06:58:54;;;;;;;2.10;1.30;;;;;28.50;96599.80;;;;111105;1247;41157;-66
2022/09/16 07:01:27;;;;;;;2.50;1.30;;;;;29.00;96615.80;;;;110678;1250;41252;-66
2022/09/16 07:04:00;;;;;;;2.50;1.30;;;;;28.30;96605.80;;;;110802;1249;41127;-66
2022/09/16 07:06:32;;;;;;;4.40;1.50;;;;;28.66;96608.00;;;;111128;1249;41153;-65
2022/09/16 07:09:24;;;;;;;3.30;1.30;;;;;28.70;96632.60;;;;110885;1250;41266;-68
2022/09/16 07:11:58;;;;;;;2.80;1.40;;;;;28.66;96633.80;;;;111168;1248;41621;-66
2022/09/16 07:14:31;;;;;;;1.70;1.20;;;;;28.24;96636.40;;;;111182;1248;41124;-67
2022/09/16 07:17:03;;;;;;;3.30;1.40;;;;;28.50;96620.40;;;;110886;1250;41265;-66
2022/09/16 07:19:35;;;;;;;4.60;1.40;;;;;29.30;96638.80;;;;111136;1249;41349;-66
2022/09/16 07:22:04;;;;;;;3.80;1.30;;;;;29.20;96625.40;;;;110977;1249;41696;-66
2022/09/16 07:24:34;;;;;;;2.50;1.30;;;;;29.16;96631.00;;;;111189;1247;41148;-67
2022/09/16 07:27:06;;;;;;;3.60;1.30;;;;;29.30;96625.20;;;;111185;1247;41136;-68
2022/09/16 07:29:37;;;;;;;3.40;1.10;;;;;29.74;96616.20;;;;111140;1247;41135;-66
2022/09/16 07:32:07;;;;;;;2.20;1.30;;;;;29.78;96614.00;;;;111108;1247;41126;-67
2022/09/16 07:34:39;;;;;;;2.00;1.20;;;;;29.80;96617.20;;;;111170;1249;41734;-67
2022/09/16 07:37:12;;;;;;;3.00;1.30;;;;;29.36;96637.40;;;;110832;1247;41170;-66
2022/09/16 07:39:42;;;;;;;2.70;1.10;;;;;29.10;96636.60;;;;111205;1248;41134;-68
2022/09/16 07:42:14;;;;;;;3.30;1.30;;;;;29.14;96644.60;;;;110910;1249;41257;-66
2022/09/16 07:44:43;;;;;;;2.90;1.30;;;;;29.24;96637.20;;;;110766;1250;41159;-66
2022/09/16 07:47:12;;;;;;;2.40;1.20;;;;;30.06;96634.80;;;;111156;1248;41497;-67
2022/09/16 07:49:44;;;;;;;2.00;1.00;;;;;30.08;96638.80;;;;111087;1248;41451;-67
2022/09/16 07:52:16;;;;;;;1.70;1.20;;;;;29.44;96645.00;;;;111127;1248;41715;-67
2022/09/16 07:54:46;;;;;;;;;;;;;29.04;96643.80;;;;111204;1247;41257;-67
2022/09/16 07:57:18;;;;;;;3.20;1.40;;;;;28.38;96641.00;;;;110834;1247;41138;-66
2022/09/16 07:59:47;;;;;;;;;;;;;27.96;96652.20;;;;110822;1251;41155;-67
2022/09/16 08:02:18;;;;;;;1.20;1.10;;;;;27.30;96655.80;;;;110852;1247;41178;-65
2022/09/16 08:04:47;;;;;;;3.60;1.50;;;;;26.90;96647.60;;;;111085;1248;41973;-65
2022/09/16 08:07:16;;;;;;;4.10;1.20;;;;;27.02;96645.00;;;;111066;1247;41134;-65
2022/09/16 08:09:44;;;;;;;2.70;1.40;;;;;27.42;96644.40;;;;111099;1247;41190;-65
2022/09/16 08:12:18;;;;;;;3.30;1.30;;;;;27.60;96639.20;;;;111073;1247;41151;-65
2022/09/16 08:14:46;;;;;;;2.40;1.20;;;;;27.58;96635.20;;;;111130;1247;41137;-65
2022/09/16 08:17:15;;;;;;;1.90;1.10;;;;;27.54;96638.40;;;;111223;1248;41258;-65
2022/09/16 08:19:44;;;;;;;2.70;1.30;;;;;28.44;96635.00;;;;111157;1250;41173;-66
2022/09/16 08:22:13;;;;;;;1.70;1.10;;;;;29.68;96626.60;;;;111032;1249;41252;-66
2022/09/16 08:24:42;;;;;;;4.00;1.30;;;;;30.84;96623.40;;;;111084;1248;41272;-65
2022/09/16 08:27:10;;;;;;;3.20;1.40;;;;;31.88;96611.80;;;;111072;1247;41532;-65
2022/09/16 08:29:39;;;;;;;2.70;1.30;;;;;31.54;96605.20;;;;111149;1247;42116;-64
2022/09/16 08:32:08;;;;;;;4.20;1.20;;;;;31.40;96606.00;;;;111051;1248;42270;-64
2022/09/16 08:34:38;;;;;;;1.60;1.30;;;;;31.80;96607.80;;;;111044;1249;41152;-65
2022/09/16 08:37:07;;;;;;;;;;;;;32.40;96614.00;;;;111091;1248;41259;-64
2022/09/16 08:39:37;;;;;;;6.40;1.40;;;;;32.22;96615.40;;;;111076;1249;41255;-64
2022/09/16 08:42:17;;;;;;;1.90;1.00;;;;;32.08;96616.80;;;;111074;1248;41149;-65
2022/09/16 08:44:57;;;;;;;3.30;1.10;;;;;32.20;96614.60;;;;111081;1250;41252;-66
2022/09/16 08:48:08;;;;;;;1.50;1.10;;;;;33.02;96612.40;;;;111042;1249;41409;-66
2022/09/16 08:50:40;;;;;;;1.20;1.10;;;;;33.84;96608.60;;;;110916;1250;42101;-65
2022/09/16 08:53:31;;;;;;;2.20;1.10;;;;;33.90;96595.80;;;;111081;1248;41252;-66
2022/09/16 08:56:04;;;;;;;2.30;1.00;;;;;34.24;96589.40;;;;111029;1248;42489;-66
2022/09/16 08:58:44;;;;;;;1.80;1.20;;;;;34.50;96589.60;;;;111030;1247;41313;-66
2022/09/16 09:01:26;;;;;;;1.50;1.10;;;;;34.28;96591.60;;;;110979;1250;41249;-65
2022/09/16 09:03:55;;;;;;;3.30;1.00;;;;;33.30;96597.00;;;;110995;1247;41768;-65
2022/09/16 09:06:32;;;;;;;1.20;1.10;;;;;33.20;96602.60;;;;110707;1251;41296;-66
2022/09/16 09:09:25;;;;;;;1.80;1.30;;;;;33.72;96608.60;;;;110998;1248;41711;-66
2022/09/16 09:12:06;;;;;;;1.90;1.20;;;;;34.02;96609.00;;;;110703;1251;41264;-66
2022/09/16 09:14:36;;;;;;;1.80;1.10;;;;;33.54;96604.20;;;;110985;1250;41124;-68
2022/09/16 09:17:23;;;;;;;2.30;1.20;;;;;34.18;96600.60;;;;111124;1249;41742;-66
2022/09/16 09:20:18;;;;;;;2.60;1.00;;;;;34.80;96616.80;;;;111067;1249;41255;-67
2022/09/16 09:22:57;;;;;;;1.70;1.10;;;;;34.80;96612.40;;;;111054;1248;41923;-66
2022/09/16 09:25:26;;;;;;;2.00;1.10;;;;;34.90;96621.20;;;;110854;1250;41142;-66
2022/09/16 09:28:33;;;;;;;3.30;1.10;;;;;34.30;96621.20;;;;110977;1248;41842;-66
2022/09/16 09:31:21;;;;;;;0.80;0.80;;;;;33.16;96623.60;;;;111003;1249;41594;-66
2022/09/16 09:34:03;;;;;;;1.60;1.00;;;;;32.30;96625.60;;;;110963;1250;41954;-66
2022/09/16 09:36:49;;;;;;;2.40;1.10;;;;;31.68;96622.80;;;;110969;1248;41168;-66
2022/09/16 09:39:30;;;;;;;1.10;1.00;;;;;32.14;96611.40;;;;110708;1250;42387;-66
2022/09/16 09:42:21;;;;;;;2.40;1.10;;;;;32.50;96611.80;;;;111063;1248;41254;-66
2022/09/16 09:45:00;;;;;;;1.10;0.90;;;;;32.30;96612.40;;;;111086;1250;41650;-66
2022/09/16 09:47:37;;;;;;;2.10;0.90;;;;;31.92;96611.20;;;;111049;1247;42691;-66
2022/09/16 09:50:29;;;;;;;1.10;0.70;;;;;31.70;96602.40;;;;110728;1249;41152;-66
2022/09/16 09:53:12;;;;;;;1.10;0.90;;;;;32.62;96591.00;;;;111016;1249;41155;-66
2022/09/16 09:55:42;;;;;;;3.00;1.30;;;;;33.70;96595.80;;;;110835;1250;41207;-66
2022/09/16 09:58:33;;;;;;;1.30;1.00;;;;;33.70;96585.60;;;;110650;1250;41816;-65
2022/09/16 10:01:03;;;;;;;2.20;1.10;;;;;33.94;96590.40;;;;110822;1250;41213;-65
2022/09/16 10:03:31;;;;;;;2.70;1.10;;;;;34.66;96583.40;;;;111041;1249;41163;-66
2022/09/16 10:06:00;;;;;;;1.20;1.00;;;;;35.32;96588.20;;;;110979;1250;41157;-66
2022/09/16 10:08:35;;;;;;;2.80;1.10;;;;;34.82;96598.00;;;;111042;1249;41456;-65
2022/09/16 10:11:17;;;;;;;5.00;1.40;;;;;34.00;96599.40;;;;110771;1250;41204;-66
2022/09/16 10:13:54;;;;;;;4.00;1.30;;;;;33.24;96587.00;;;;111033;1248;42018;-66
2022/09/16 10:16:30;;;;;;;3.20;1.20;;;;;32.72;96589.20;;;;110994;1250;41143;-66
2022/09/16 10:19:06;;;;;;;1.90;1.10;;;;;32.62;96575.40;;;;110816;1250;41156;-66
2022/09/16 10:21:49;;;;;;;1.70;0.90;;;;;33.24;96577.00;;;;111037;1249;41136;-65
2022/09/16 10:24:30;;;;;;;1.60;1.00;;;;;34.00;96589.00;;;;111034;1250;41136;-66
2022/09/16 10:27:22;;;;;;;1.40;1.10;;;;;34.64;96588.40;;;;110996;1250;41256;-66
2022/09/16 10:30:13;;;;;;;1.90;1.10;;;;;35.62;96582.20;;;;111022;1250;42382;-66
2022/09/16 10:32:58;;;;;;;1.10;1.00;;;;;35.42;96585.20;;;;111038;1247;41802;-65
2022/09/16 10:35:32;;;;;;;1.10;0.90;;;;;35.66;96593.20;;;;111270;1247;41219;-65
2022/09/16 10:38:04;;;;;;;1.80;1.00;;;;;36.04;96583.80;;;;111002;1248;41998;-68
2022/09/16 10:40:33;;;;;;;2.60;0.90;;;;;36.22;96593.60;;;;111012;1249;41134;-66
2022/09/16 10:43:06;;;;;;;2.90;1.20;;;;;36.06;96602.20;;;;111063;1248;41140;-66
2022/09/16 10:45:36;;;;;;;1.00;0.70;;;;;35.88;96598.60;;;;111055;1249;41836;-66
2022/09/16 10:48:12;;;;;;;1.20;0.90;;;;;36.58;96593.20;;;;111040;1247;41131;-66
2022/09/16 10:51:02;;;;;;;1.70;0.80;;;;;37.36;96588.00;;;;110712;1250;41257;-66
2022/09/16 10:53:37;;;;;;;1.50;1.00;;;;;38.08;96575.00;;;;111071;1248;41163;-66
2022/09/16 10:56:20;;;;;;;4.00;1.20;;;;;37.36;96573.00;;;;111034;1248;41135;-66
2022/09/16 10:59:10;;;;;;;1.50;1.10;;;;;36.96;96574.00;;;;111029;1249;41141;-66
2022/09/16 11:01:58;;;;;;;3.00;1.10;;;;;36.12;96577.80;;;;111021;1250;41306;-66
2022/09/16 11:04:45;;;;;;;2.40;0.90;;;;;34.42;96578.00;;;;110983;1250;41265;-66
2022/09/16 11:07:33;;;;;;;1.70;1.00;;;;;33.40;96583.40;;;;110995;1250;41148;-65
2022/09/16 11:10:02;;;;;;;3.10;1.20;;;;;32.14;96590.20;;;;111094;1248;41133;-65
2022/09/16 11:12:52;;;;;;;4.50;1.10;;;;;31.66;96589.00;;;;111087;1248;41153;-65
2022/09/16 11:15:42;;;;;;;1.00;0.80;;;;;30.84;96600.80;;;;111021;1249;41255;-64
2022/09/16 11:18:44;;;;;;;3.60;1.50;;;;;30.62;96598.60;;;;111038;1247;41713;-64
2022/09/16 11:21:29;;;;;;;6.00;1.40;;;;;30.02;96595.00;;;;111026;1248;42166;-64
2022/09/16 11:24:17;;;;;;;2.10;1.30;;;;;29.34;96588.00;;;;111046;1247;41721;-66
2022/09/16 11:27:04;;;;;;;3.80;1.00;;;;;28.46;96594.20;;;;111044;1247;41815;-66
2022/09/16 11:29:51;;;;;;;2.70;1.10;;;;;28.00;96592.20;;;;111185;1247;41123;-65
2022/09/16 11:32:40;;;;;;;2.20;1.10;;;;;27.40;96593.20;;;;111116;1247;41197;-66
2022/09/16 11:35:12;;;;;;;5.70;1.20;;;;;27.00;96593.40;;;;111029;1247;41193;-66
2022/09/16 11:38:11;;;;;;;1.50;1.10;;;;;26.66;96596.40;;;;111075;1247;41148;-65
2022/09/16 11:40:57;;;;;;;2.50;1.20;;;;;26.10;96595.40;;;;111144;1247;41133;-65
2022/09/16 11:43:50;;;;;;;4.40;1.20;;;;;25.90;96602.00;;;;111083;1248;41263;-65
2022/09/16 11:46:33;;;;;;;1.70;1.00;;;;;25.70;96603.60;;;;111013;1247;42559;-66
2022/09/16 11:49:17;;;;;;;2.60;1.30;;;;;25.48;96592.20;;;;111071;1250;41328;-65
2022/09/16 11:52:19;;;;;;;3.20;1.60;;;;;25.30;96583.00;;;;111040;1247;41152;-65
2022/09/16 11:54:48;;;;;;;2.30;1.20;;;;;25.20;96570.60;;;;110662;1250;41506;-65
2022/09/16 11:57:25;;;;;;;2.20;1.20;;;;;25.20;96561.40;;;;111027;1249;41381;-65
2022/09/16 11:59:58;;;;;;;2.60;1.50;;;;;25.30;96556.40;;;;111047;1249;41162;-65
2022/09/16 12:02:29;;;;;;;3.70;1.10;;;;;25.42;96559.60;;;;111027;1249;41614;-65
2022/09/16 12:05:06;;;;;;;1.60;1.00;;;;;25.50;96564.80;;;;111042;1248;41152;-65
2022/09/16 12:07:38;;;;;;;1.00;0.90;;;;;25.60;96565.60;;;;111075;1248;41168;-65
2022/09/16 12:10:31;;;;;;;1.40;0.80;;;;;25.60;96561.40;;;;111044;1249;41142;-64
2022/09/16 12:13:22;;;;;;;3.40;1.10;;;;;25.70;96563.40;;;;111068;1250;41153;-65
2022/09/16 12:16:01;;;;;;;6.90;1.70;;;;;25.70;96558.00;;;;111009;1249;41730;-66
2022/09/16 12:18:36;;;;;;;5.40;1.30;;;;;25.70;96554.40;;;;111138;1248;41135;-65
2022/09/16 12:21:14;;;;;;;1.20;1.10;;;;;25.60;96551.80;;;;111153;1247;41256;-66
2022/09/16 12:23:47;;;;;;;4.30;1.30;;;;;25.50;96549.20;;;;110926;1250;42462;-66
2022/09/16 12:26:32;;;;;;;3.50;1.40;;;;;25.40;96544.40;;;;110858;1250;41156;-65
2022/09/16 12:29:01;;;;;;;5.90;1.50;;;;;25.14;96538.60;;;;111099;1249;41252;-64
2022/09/16 12:31:59;;;;;;;1.40;1.10;;;;;25.00;96531.60;;;;111058;1247;41179;-65
2022/09/16 12:34:33;;;;;;;2.30;1.10;;;;;24.80;96527.20;;;;110674;1250;42410;-64
2022/09/16 12:37:26;;;;;;;2.90;1.50;;;;;24.56;96534.00;;;;111063;1249;41988;-65
2022/09/16 12:39:54;;;;;;;3.80;1.30;;;;;24.44;96533.60;;;;110948;1247;41433;-65
2022/09/16 12:42:37;;;;;;;4.70;1.90;;;;;24.48;96540.20;;;;111159;1248;41479;-64
2022/09/16 12:45:26;;;;;;;4.50;1.60;;;;;24.50;96537.00;;;;111066;1248;41488;-65
2022/09/16 12:48:27;;;;;;;1.80;1.30;;;;;24.38;96533.80;;;;110998;1250;41155;-65
2022/09/16 12:51:14;;;;;;;3.80;1.60;;;;;24.36;96540.60;;;;111013;1250;41139;-65
2022/09/16 12:53:59;;;;;;;2.50;1.30;;;;;24.20;96559.20;;;;111063;1248;41160;-65
2022/09/16 12:56:41;;;;;;;4.70;1.30;;;;;23.90;96568.60;;;;111049;1250;41254;-65